sensor_id;sensor_type;location;lat;lon;timestamp;P1;durP1;ratioP1;P2;durP2;ratioP2
21822;SDS011;11074;48.596;9.238;2022-10-16T00:01:21;11.10;;;2.78;;
21822;SDS011;11074;48.596;9.238;2022-10-16T00:03:50;6.85;;;2.58;;
21822;SDS011;11074;48.596;9.238;2022-10-16T00:06:17;5.85;;;2.47;;
21822;SDS011;11074;48.596;9.238;2022-10-16T00:08:46;5.68;;;2.55;;
21822;SDS011;11074;48.596;9.238;2022-10-16T00:11:15;6.45;;;2.85;;
21822;SDS011;11074;48.596;9.238;2022-10-16T00:13:45;8.43;;;3.30;;
21822;SDS011;11074;48.596;9.238;2022-10-16T00:16:13;9.35;;;2.85;;
21822;SDS011;11074;48.596;9.238;2022-10-16T00:18:40;4.63;;;2.33;;
21822;SDS011;11074;48.596;9.238;2022-10-16T00:21:07;3.67;;;2.25;;
21822;SDS011;11074;48.596;9.238;2022-10-16T00:23:41;4.07;;;1.38;;
21822;SDS011;11074;48.596;9.238;2022-10-16T00:26:08;3.10;;;1.58;;
21822;SDS011;11074;48.596;9.238;2022-10-16T00:28:37;2.72;;;1.45;;
21822;SDS011;11074;48.596;9.238;2022-10-16T00:31:07;6.45;;;1.77;;
21822;SDS011;11074;48.596;9.238;2022-10-16T00:33:36;2.83;;;1.70;;
21822;SDS011;11074;48.596;9.238;2022-10-16T00:36:03;1.92;;;1.30;;
21822;SDS011;11074;48.596;9.238;2022-10-16T00:38:32;3.97;;;1.35;;
21822;SDS011;11074;48.596;9.238;2022-10-16T00:40:58;4.82;;;1.90;;
21822;SDS011;11074;48.596;9.238;2022-10-16T00:46:05;2.85;;;1.30;;
21822;SDS011;11074;48.596;9.238;2022-10-16T00:48:42;4.75;;;1.50;;
21822;SDS011;11074;48.596;9.238;2022-10-16T00:51:14;2.55;;;1.40;;
21822;SDS011;11074;48.596;9.238;2022-10-16T00:53:44;3.78;;;1.50;;
21822;SDS011;11074;48.596;9.238;2022-10-16T00:56:11;6.88;;;1.52;;
21822;SDS011;11074;48.596;9.238;2022-10-16T00:58:36;4.30;;;1.60;;
21822;SDS011;11074;48.596;9.238;2022-10-16T01:01:02;5.10;;;1.60;;
21822;SDS011;11074;48.596;9.238;2022-10-16T01:03:32;5.78;;;1.70;;
21822;SDS011;11074;48.596;9.238;2022-10-16T01:06:19;5.60;;;1.50;;
21822;SDS011;11074;48.596;9.238;2022-10-16T01:09:18;5.88;;;1.63;;
21822;SDS011;11074;48.596;9.238;2022-10-16T01:15:18;7.95;;;1.85;;
21822;SDS011;11074;48.596;9.238;2022-10-16T01:20:55;2.97;;;1.30;;
21822;SDS011;11074;48.596;9.238;2022-10-16T01:29:15;5.85;;;1.65;;
21822;SDS011;11074;48.596;9.238;2022-10-16T01:31:56;4.45;;;1.60;;
21822;SDS011;11074;48.596;9.238;2022-10-16T01:34:32;5.53;;;1.73;;
21822;SDS011;11074;48.596;9.238;2022-10-16T01:37:54;4.07;;;1.67;;
21822;SDS011;11074;48.596;9.238;2022-10-16T01:40:56;5.10;;;1.80;;
21822;SDS011;11074;48.596;9.238;2022-10-16T01:43:36;7.00;;;1.52;;
21822;SDS011;11074;48.596;9.238;2022-10-16T01:46:30;3.53;;;1.35;;
21822;SDS011;11074;48.596;9.238;2022-10-16T01:48:57;1.73;;;1.20;;
21822;SDS011;11074;48.596;9.238;2022-10-16T01:51:26;4.00;;;1.60;;
21822;SDS011;11074;48.596;9.238;2022-10-16T01:53:55;5.10;;;1.40;;
21822;SDS011;11074;48.596;9.238;2022-10-16T01:56:25;3.20;;;1.20;;
21822;SDS011;11074;48.596;9.238;2022-10-16T01:58:57;2.33;;;1.48;;
21822;SDS011;11074;48.596;9.238;2022-10-16T02:01:29;3.13;;;1.20;;
21822;SDS011;11074;48.596;9.238;2022-10-16T02:04:01;4.63;;;1.40;;
21822;SDS011;11074;48.596;9.238;2022-10-16T02:06:37;2.65;;;1.30;;
21822;SDS011;11074;48.596;9.238;2022-10-16T02:09:03;2.97;;;1.23;;
21822;SDS011;11074;48.596;9.238;2022-10-16T02:11:29;2.83;;;1.40;;
21822;SDS011;11074;48.596;9.238;2022-10-16T02:14:01;6.30;;;2.17;;
21822;SDS011;11074;48.596;9.238;2022-10-16T02:16:39;3.63;;;1.80;;
21822;SDS011;11074;48.596;9.238;2022-10-16T02:19:08;4.65;;;1.70;;
21822;SDS011;11074;48.596;9.238;2022-10-16T02:21:40;3.95;;;1.65;;
21822;SDS011;11074;48.596;9.238;2022-10-16T02:24:27;2.85;;;1.63;;
21822;SDS011;11074;48.596;9.238;2022-10-16T02:33:07;2.38;;;1.25;;
21822;SDS011;11074;48.596;9.238;2022-10-16T02:35:38;3.47;;;1.42;;
21822;SDS011;11074;48.596;9.238;2022-10-16T02:38:06;6.80;;;1.90;;
21822;SDS011;11074;48.596;9.238;2022-10-16T02:40:35;4.18;;;1.70;;
21822;SDS011;11074;48.596;9.238;2022-10-16T02:43:03;4.10;;;1.75;;
21822;SDS011;11074;48.596;9.238;2022-10-16T02:45:30;5.60;;;1.90;;
21822;SDS011;11074;48.596;9.238;2022-10-16T02:47:56;4.53;;;1.95;;
21822;SDS011;11074;48.596;9.238;2022-10-16T02:50:21;5.20;;;2.47;;
21822;SDS011;11074;48.596;9.238;2022-10-16T02:52:49;6.80;;;1.90;;
21822;SDS011;11074;48.596;9.238;2022-10-16T02:55:14;8.10;;;2.03;;
21822;SDS011;11074;48.596;9.238;2022-10-16T02:57:40;3.47;;;1.50;;
21822;SDS011;11074;48.596;9.238;2022-10-16T03:00:07;7.40;;;1.77;;
21822;SDS011;11074;48.596;9.238;2022-10-16T03:02:36;3.00;;;1.48;;
21822;SDS011;11074;48.596;9.238;2022-10-16T03:05:02;2.92;;;1.50;;
21822;SDS011;11074;48.596;9.238;2022-10-16T03:07:28;4.53;;;1.63;;
21822;SDS011;11074;48.596;9.238;2022-10-16T03:09:54;7.15;;;1.67;;
21822;SDS011;11074;48.596;9.238;2022-10-16T03:12:20;7.72;;;1.80;;
21822;SDS011;11074;48.596;9.238;2022-10-16T03:14:46;3.15;;;1.42;;
21822;SDS011;11074;48.596;9.238;2022-10-16T03:17:12;3.13;;;1.45;;
21822;SDS011;11074;48.596;9.238;2022-10-16T03:19:38;4.40;;;1.30;;
21822;SDS011;11074;48.596;9.238;2022-10-16T03:22:04;5.03;;;1.58;;
21822;SDS011;11074;48.596;9.238;2022-10-16T03:24:30;3.05;;;1.60;;
21822;SDS011;11074;48.596;9.238;2022-10-16T03:26:55;3.70;;;1.55;;
21822;SDS011;11074;48.596;9.238;2022-10-16T03:29:21;3.92;;;1.25;;
21822;SDS011;11074;48.596;9.238;2022-10-16T03:31:47;6.97;;;1.73;;
21822;SDS011;11074;48.596;9.238;2022-10-16T03:34:14;5.63;;;1.48;;
21822;SDS011;11074;48.596;9.238;2022-10-16T03:36:40;3.60;;;1.48;;
21822;SDS011;11074;48.596;9.238;2022-10-16T03:39:06;6.32;;;1.60;;
21822;SDS011;11074;48.596;9.238;2022-10-16T03:41:31;4.85;;;1.50;;
21822;SDS011;11074;48.596;9.238;2022-10-16T03:43:57;3.10;;;1.60;;
21822;SDS011;11074;48.596;9.238;2022-10-16T03:46:23;2.80;;;1.65;;
21822;SDS011;11074;48.596;9.238;2022-10-16T03:48:48;3.78;;;2.08;;
21822;SDS011;11074;48.596;9.238;2022-10-16T03:51:14;3.80;;;1.45;;
21822;SDS011;11074;48.596;9.238;2022-10-16T03:53:40;3.83;;;1.38;;
21822;SDS011;11074;48.596;9.238;2022-10-16T03:56:05;6.07;;;1.55;;
21822;SDS011;11074;48.596;9.238;2022-10-16T03:58:31;5.25;;;1.48;;
21822;SDS011;11074;48.596;9.238;2022-10-16T04:00:57;4.32;;;1.52;;
21822;SDS011;11074;48.596;9.238;2022-10-16T04:03:23;3.17;;;1.30;;
21822;SDS011;11074;48.596;9.238;2022-10-16T04:05:48;4.45;;;1.27;;
21822;SDS011;11074;48.596;9.238;2022-10-16T04:08:15;4.97;;;1.30;;
21822;SDS011;11074;48.596;9.238;2022-10-16T04:10:44;3.83;;;1.35;;
21822;SDS011;11074;48.596;9.238;2022-10-16T04:13:10;3.60;;;1.40;;
21822;SDS011;11074;48.596;9.238;2022-10-16T04:15:37;4.50;;;1.23;;
21822;SDS011;11074;48.596;9.238;2022-10-16T04:18:04;3.65;;;1.30;;
21822;SDS011;11074;48.596;9.238;2022-10-16T04:20:30;4.57;;;1.50;;
21822;SDS011;11074;48.596;9.238;2022-10-16T04:22:57;4.93;;;1.40;;
21822;SDS011;11074;48.596;9.238;2022-10-16T04:25:22;7.80;;;1.70;;
21822;SDS011;11074;48.596;9.238;2022-10-16T04:27:48;5.53;;;1.63;;
21822;SDS011;11074;48.596;9.238;2022-10-16T04:30:14;6.50;;;1.20;;
21822;SDS011;11074;48.596;9.238;2022-10-16T04:32:40;2.83;;;1.40;;
21822;SDS011;11074;48.596;9.238;2022-10-16T04:35:06;6.68;;;1.40;;
21822;SDS011;11074;48.596;9.238;2022-10-16T04:37:32;2.15;;;1.35;;
21822;SDS011;11074;48.596;9.238;2022-10-16T04:39:58;3.97;;;1.40;;
21822;SDS011;11074;48.596;9.238;2022-10-16T04:42:23;5.85;;;1.38;;
21822;SDS011;11074;48.596;9.238;2022-10-16T04:44:49;2.83;;;1.10;;
21822;SDS011;11074;48.596;9.238;2022-10-16T04:47:15;4.60;;;1.40;;
21822;SDS011;11074;48.596;9.238;2022-10-16T04:49:40;3.45;;;1.50;;
21822;SDS011;11074;48.596;9.238;2022-10-16T04:52:06;5.15;;;1.50;;
21822;SDS011;11074;48.596;9.238;2022-10-16T04:54:34;5.38;;;1.60;;
21822;SDS011;11074;48.596;9.238;2022-10-16T04:56:59;3.38;;;1.33;;
21822;SDS011;11074;48.596;9.238;2022-10-16T04:59:25;5.03;;;1.30;;
21822;SDS011;11074;48.596;9.238;2022-10-16T05:01:51;3.83;;;1.25;;
21822;SDS011;11074;48.596;9.238;2022-10-16T05:04:17;4.45;;;1.48;;
21822;SDS011;11074;48.596;9.238;2022-10-16T05:06:42;4.63;;;1.33;;
21822;SDS011;11074;48.596;9.238;2022-10-16T05:09:08;5.20;;;1.60;;
21822;SDS011;11074;48.596;9.238;2022-10-16T05:11:35;4.95;;;1.42;;
21822;SDS011;11074;48.596;9.238;2022-10-16T05:14:01;4.47;;;1.70;;
21822;SDS011;11074;48.596;9.238;2022-10-16T05:16:27;3.58;;;1.30;;
21822;SDS011;11074;48.596;9.238;2022-10-16T05:18:53;4.05;;;1.60;;
21822;SDS011;11074;48.596;9.238;2022-10-16T05:21:20;6.22;;;1.55;;
21822;SDS011;11074;48.596;9.238;2022-10-16T05:23:45;4.75;;;1.50;;
21822;SDS011;11074;48.596;9.238;2022-10-16T05:26:11;4.43;;;1.60;;
21822;SDS011;11074;48.596;9.238;2022-10-16T05:28:37;3.53;;;1.42;;
21822;SDS011;11074;48.596;9.238;2022-10-16T05:31:06;8.32;;;1.45;;
21822;SDS011;11074;48.596;9.238;2022-10-16T05:33:36;2.83;;;1.70;;
21822;SDS011;11074;48.596;9.238;2022-10-16T05:36:04;4.07;;;1.60;;
21822;SDS011;11074;48.596;9.238;2022-10-16T05:38:33;5.43;;;2.15;;
21822;SDS011;11074;48.596;9.238;2022-10-16T05:41:04;4.13;;;2.30;;
21822;SDS011;11074;48.596;9.238;2022-10-16T05:43:30;5.60;;;1.60;;
21822;SDS011;11074;48.596;9.238;2022-10-16T05:45:59;4.40;;;1.60;;
21822;SDS011;11074;48.596;9.238;2022-10-16T05:48:30;6.20;;;1.97;;
21822;SDS011;11074;48.596;9.238;2022-10-16T05:51:00;7.72;;;2.08;;
21822;SDS011;11074;48.596;9.238;2022-10-16T05:53:34;7.70;;;2.25;;
21822;SDS011;11074;48.596;9.238;2022-10-16T05:56:03;9.90;;;2.53;;
21822;SDS011;11074;48.596;9.238;2022-10-16T05:58:32;7.57;;;1.80;;
21822;SDS011;11074;48.596;9.238;2022-10-16T06:01:04;2.83;;;1.80;;
21822;SDS011;11074;48.596;9.238;2022-10-16T06:03:35;15.50;;;2.15;;
21822;SDS011;11074;48.596;9.238;2022-10-16T06:06:14;8.50;;;1.67;;
21822;SDS011;11074;48.596;9.238;2022-10-16T06:08:44;5.18;;;1.40;;
21822;SDS011;11074;48.596;9.238;2022-10-16T06:11:12;9.68;;;1.30;;
21822;SDS011;11074;48.596;9.238;2022-10-16T06:13:51;4.13;;;1.40;;
21822;SDS011;11074;48.596;9.238;2022-10-16T06:16:19;2.78;;;1.20;;
21822;SDS011;11074;48.596;9.238;2022-10-16T06:18:52;6.78;;;1.60;;
21822;SDS011;11074;48.596;9.238;2022-10-16T06:21:20;4.53;;;1.50;;
21822;SDS011;11074;48.596;9.238;2022-10-16T06:23:52;3.28;;;1.40;;
21822;SDS011;11074;48.596;9.238;2022-10-16T06:26:20;3.20;;;1.42;;
21822;SDS011;11074;48.596;9.238;2022-10-16T06:28:49;2.50;;;1.40;;
21822;SDS011;11074;48.596;9.238;2022-10-16T06:31:15;2.78;;;1.33;;
21822;SDS011;11074;48.596;9.238;2022-10-16T06:33:42;3.53;;;1.30;;
21822;SDS011;11074;48.596;9.238;2022-10-16T06:36:12;4.82;;;1.50;;
21822;SDS011;11074;48.596;9.238;2022-10-16T06:38:41;4.97;;;1.80;;
21822;SDS011;11074;48.596;9.238;2022-10-16T06:41:09;2.92;;;1.85;;
21822;SDS011;11074;48.596;9.238;2022-10-16T06:43:38;3.13;;;1.90;;
21822;SDS011;11074;48.596;9.238;2022-10-16T06:46:05;7.47;;;2.00;;
21822;SDS011;11074;48.596;9.238;2022-10-16T06:48:34;3.83;;;1.95;;
21822;SDS011;11074;48.596;9.238;2022-10-16T06:51:02;4.35;;;1.60;;
21822;SDS011;11074;48.596;9.238;2022-10-16T06:53:30;7.55;;;1.88;;
21822;SDS011;11074;48.596;9.238;2022-10-16T06:56:06;5.00;;;1.70;;
21822;SDS011;11074;48.596;9.238;2022-10-16T06:58:40;4.00;;;1.90;;
21822;SDS011;11074;48.596;9.238;2022-10-16T07:01:07;2.30;;;1.40;;
21822;SDS011;11074;48.596;9.238;2022-10-16T07:03:41;4.22;;;1.70;;
21822;SDS011;11074;48.596;9.238;2022-10-16T07:06:10;4.97;;;1.67;;
21822;SDS011;11074;48.596;9.238;2022-10-16T07:08:39;8.35;;;1.80;;
21822;SDS011;11074;48.596;9.238;2022-10-16T07:11:09;7.10;;;1.80;;
21822;SDS011;11074;48.596;9.238;2022-10-16T07:13:39;2.20;;;1.48;;
21822;SDS011;11074;48.596;9.238;2022-10-16T07:16:11;5.88;;;1.67;;
21822;SDS011;11074;48.596;9.238;2022-10-16T07:18:38;2.63;;;1.35;;
21822;SDS011;11074;48.596;9.238;2022-10-16T07:21:06;4.00;;;1.52;;
21822;SDS011;11074;48.596;9.238;2022-10-16T07:23:34;2.72;;;1.30;;
21822;SDS011;11074;48.596;9.238;2022-10-16T07:26:01;6.07;;;1.55;;
21822;SDS011;11074;48.596;9.238;2022-10-16T07:28:27;3.72;;;1.50;;
21822;SDS011;11074;48.596;9.238;2022-10-16T07:30:53;4.28;;;1.55;;
21822;SDS011;11074;48.596;9.238;2022-10-16T07:33:19;5.03;;;1.60;;
21822;SDS011;11074;48.596;9.238;2022-10-16T07:35:52;4.50;;;1.55;;
21822;SDS011;11074;48.596;9.238;2022-10-16T07:38:20;3.88;;;1.50;;
21822;SDS011;11074;48.596;9.238;2022-10-16T07:40:47;4.78;;;1.60;;
21822;SDS011;11074;48.596;9.238;2022-10-16T07:43:13;5.32;;;1.40;;
21822;SDS011;11074;48.596;9.238;2022-10-16T07:45:49;3.00;;;1.50;;
21822;SDS011;11074;48.596;9.238;2022-10-16T07:48:15;3.78;;;1.30;;
21822;SDS011;11074;48.596;9.238;2022-10-16T07:50:43;4.28;;;1.70;;
21822;SDS011;11074;48.596;9.238;2022-10-16T07:53:09;5.43;;;1.70;;
21822;SDS011;11074;48.596;9.238;2022-10-16T07:55:36;6.45;;;1.65;;
21822;SDS011;11074;48.596;9.238;2022-10-16T07:58:02;5.05;;;1.52;;
21822;SDS011;11074;48.596;9.238;2022-10-16T08:00:29;4.75;;;1.98;;
21822;SDS011;11074;48.596;9.238;2022-10-16T08:02:56;5.25;;;1.70;;
21822;SDS011;11074;48.596;9.238;2022-10-16T08:05:28;5.35;;;1.80;;
21822;SDS011;11074;48.596;9.238;2022-10-16T08:07:55;5.30;;;1.77;;
21822;SDS011;11074;48.596;9.238;2022-10-16T08:10:22;4.53;;;1.67;;
21822;SDS011;11074;48.596;9.238;2022-10-16T08:12:51;8.05;;;1.75;;
21822;SDS011;11074;48.596;9.238;2022-10-16T08:15:18;6.60;;;1.80;;
21822;SDS011;11074;48.596;9.238;2022-10-16T08:17:44;4.38;;;1.88;;
21822;SDS011;11074;48.596;9.238;2022-10-16T08:20:23;3.58;;;1.65;;
21822;SDS011;11074;48.596;9.238;2022-10-16T08:22:49;5.32;;;1.77;;
21822;SDS011;11074;48.596;9.238;2022-10-16T08:25:15;3.38;;;1.85;;
21822;SDS011;11074;48.596;9.238;2022-10-16T08:27:40;4.43;;;2.10;;
21822;SDS011;11074;48.596;9.238;2022-10-16T08:30:06;3.08;;;1.80;;
21822;SDS011;11074;48.596;9.238;2022-10-16T08:32:33;3.28;;;2.17;;
21822;SDS011;11074;48.596;9.238;2022-10-16T08:34:59;5.57;;;1.95;;
21822;SDS011;11074;48.596;9.238;2022-10-16T08:37:24;3.85;;;2.20;;
21822;SDS011;11074;48.596;9.238;2022-10-16T08:39:55;4.55;;;2.40;;
21822;SDS011;11074;48.596;9.238;2022-10-16T08:45:43;6.18;;;2.53;;
21822;SDS011;11074;48.596;9.238;2022-10-16T08:48:36;6.30;;;2.25;;
21822;SDS011;11074;48.596;9.238;2022-10-16T08:51:19;4.75;;;1.95;;
21822;SDS011;11074;48.596;9.238;2022-10-16T08:53:56;6.75;;;2.10;;
21822;SDS011;11074;48.596;9.238;2022-10-16T08:56:56;2.70;;;1.75;;
21822;SDS011;11074;48.596;9.238;2022-10-16T08:59:32;3.63;;;1.95;;
21822;SDS011;11074;48.596;9.238;2022-10-16T09:01:58;6.18;;;1.98;;
21822;SDS011;11074;48.596;9.238;2022-10-16T09:07:37;2.60;;;1.77;;
21822;SDS011;11074;48.596;9.238;2022-10-16T09:10:51;4.53;;;1.70;;
21822;SDS011;11074;48.596;9.238;2022-10-16T09:13:53;2.58;;;1.70;;
21822;SDS011;11074;48.596;9.238;2022-10-16T09:17:22;2.53;;;1.60;;
21822;SDS011;11074;48.596;9.238;2022-10-16T09:20:03;3.22;;;1.75;;
21822;SDS011;11074;48.596;9.238;2022-10-16T09:22:57;2.40;;;1.70;;
21822;SDS011;11074;48.596;9.238;2022-10-16T09:25:30;7.15;;;1.65;;
21822;SDS011;11074;48.596;9.238;2022-10-16T09:27:58;4.72;;;1.75;;
21822;SDS011;11074;48.596;9.238;2022-10-16T09:30:26;8.27;;;2.50;;
21822;SDS011;11074;48.596;9.238;2022-10-16T09:32:54;7.75;;;1.42;;
21822;SDS011;11074;48.596;9.238;2022-10-16T09:35:30;3.50;;;1.50;;
21822;SDS011;11074;48.596;9.238;2022-10-16T09:38:03;3.80;;;1.70;;
21822;SDS011;11074;48.596;9.238;2022-10-16T09:40:32;4.45;;;1.80;;
21822;SDS011;11074;48.596;9.238;2022-10-16T09:46:22;6.70;;;2.53;;
21822;SDS011;11074;48.596;9.238;2022-10-16T09:48:58;3.33;;;2.10;;
21822;SDS011;11074;48.596;9.238;2022-10-16T09:56:39;3.50;;;1.50;;
21822;SDS011;11074;48.596;9.238;2022-10-16T09:59:10;4.07;;;1.50;;
21822;SDS011;11074;48.596;9.238;2022-10-16T10:04:12;4.53;;;1.73;;
21822;SDS011;11074;48.596;9.238;2022-10-16T10:06:50;3.45;;;1.40;;
21822;SDS011;11074;48.596;9.238;2022-10-16T10:09:23;4.80;;;1.77;;
21822;SDS011;11074;48.596;9.238;2022-10-16T10:12:01;5.57;;;1.50;;
21822;SDS011;11074;48.596;9.238;2022-10-16T10:14:39;1.85;;;1.23;;
21822;SDS011;11074;48.596;9.238;2022-10-16T10:17:19;2.40;;;1.55;;
21822;SDS011;11074;48.596;9.238;2022-10-16T10:19:49;2.33;;;1.40;;
21822;SDS011;11074;48.596;9.238;2022-10-16T10:22:30;5.10;;;1.42;;
21822;SDS011;11074;48.596;9.238;2022-10-16T10:30:29;4.85;;;1.45;;
21822;SDS011;11074;48.596;9.238;2022-10-16T10:33:44;3.92;;;1.65;;
21822;SDS011;11074;48.596;9.238;2022-10-16T10:36:25;4.72;;;1.80;;
21822;SDS011;11074;48.596;9.238;2022-10-16T10:50:42;3.70;;;1.40;;
21822;SDS011;11074;48.596;9.238;2022-10-16T10:53:37;3.30;;;1.10;;
21822;SDS011;11074;48.596;9.238;2022-10-16T10:56:39;4.53;;;1.50;;
21822;SDS011;11074;48.596;9.238;2022-10-16T11:01:54;3.92;;;1.60;;
21822;SDS011;11074;48.596;9.238;2022-10-16T11:07:36;2.92;;;1.60;;
21822;SDS011;11074;48.596;9.238;2022-10-16T11:11:01;2.97;;;1.67;;
21822;SDS011;11074;48.596;9.238;2022-10-16T11:16:18;1.40;;;1.00;;
21822;SDS011;11074;48.596;9.238;2022-10-16T11:19:04;3.65;;;1.23;;
21822;SDS011;11074;48.596;9.238;2022-10-16T11:21:45;3.25;;;1.27;;
21822;SDS011;11074;48.596;9.238;2022-10-16T11:24:20;4.18;;;1.40;;
21822;SDS011;11074;48.596;9.238;2022-10-16T11:27:12;2.83;;;1.20;;
21822;SDS011;11074;48.596;9.238;2022-10-16T11:29:56;3.80;;;1.20;;
21822;SDS011;11074;48.596;9.238;2022-10-16T11:32:31;2.17;;;1.50;;
21822;SDS011;11074;48.596;9.238;2022-10-16T11:35:17;4.70;;;1.63;;
21822;SDS011;11074;48.596;9.238;2022-10-16T11:37:50;1.55;;;1.20;;
21822;SDS011;11074;48.596;9.238;2022-10-16T11:40:25;2.15;;;1.15;;
21822;SDS011;11074;48.596;9.238;2022-10-16T11:43:11;1.38;;;1.10;;
21822;SDS011;11074;48.596;9.238;2022-10-16T11:45:54;3.10;;;1.10;;
21822;SDS011;11074;48.596;9.238;2022-10-16T11:48:47;2.75;;;1.20;;
21822;SDS011;11074;48.596;9.238;2022-10-16T11:51:27;4.45;;;1.15;;
21822;SDS011;11074;48.596;9.238;2022-10-16T11:56:48;2.60;;;1.13;;
21822;SDS011;11074;48.596;9.238;2022-10-16T11:59:41;1.83;;;1.10;;
21822;SDS011;11074;48.596;9.238;2022-10-16T12:02:29;2.13;;;1.20;;
21822;SDS011;11074;48.596;9.238;2022-10-16T12:08:36;2.45;;;1.05;;
21822;SDS011;11074;48.596;9.238;2022-10-16T12:11:19;1.67;;;1.10;;
21822;SDS011;11074;48.596;9.238;2022-10-16T12:14:07;1.17;;;0.93;;
21822;SDS011;11074;48.596;9.238;2022-10-16T12:19:17;2.08;;;1.15;;
21822;SDS011;11074;48.596;9.238;2022-10-16T12:21:44;1.75;;;1.10;;
21822;SDS011;11074;48.596;9.238;2022-10-16T12:24:19;1.70;;;1.33;;
21822;SDS011;11074;48.596;9.238;2022-10-16T12:27:05;1.77;;;1.48;;
21822;SDS011;11074;48.596;9.238;2022-10-16T12:29:48;2.90;;;1.20;;
21822;SDS011;11074;48.596;9.238;2022-10-16T12:32:38;2.20;;;1.20;;
21822;SDS011;11074;48.596;9.238;2022-10-16T12:35:05;4.28;;;1.20;;
21822;SDS011;11074;48.596;9.238;2022-10-16T12:37:45;3.60;;;1.20;;
21822;SDS011;11074;48.596;9.238;2022-10-16T12:40:28;6.80;;;1.23;;
21822;SDS011;11074;48.596;9.238;2022-10-16T12:42:58;7.28;;;1.67;;
21822;SDS011;11074;48.596;9.238;2022-10-16T12:47:56;3.58;;;1.00;;
21822;SDS011;11074;48.596;9.238;2022-10-16T12:53:03;3.28;;;1.23;;
21822;SDS011;11074;48.596;9.238;2022-10-16T13:01:58;1.65;;;1.13;;
21822;SDS011;11074;48.596;9.238;2022-10-16T13:04:47;2.22;;;1.10;;
21822;SDS011;11074;48.596;9.238;2022-10-16T13:10:25;1.85;;;1.20;;
21822;SDS011;11074;48.596;9.238;2022-10-16T13:13:07;2.38;;;1.08;;
21822;SDS011;11074;48.596;9.238;2022-10-16T13:16:22;3.40;;;1.20;;
21822;SDS011;11074;48.596;9.238;2022-10-16T13:24:56;2.35;;;1.10;;
21822;SDS011;11074;48.596;9.238;2022-10-16T13:27:56;1.77;;;1.15;;
21822;SDS011;11074;48.596;9.238;2022-10-16T13:30:38;1.70;;;1.20;;
21822;SDS011;11074;48.596;9.238;2022-10-16T13:33:20;3.35;;;1.38;;
21822;SDS011;11074;48.596;9.238;2022-10-16T13:36:02;3.47;;;1.33;;
21822;SDS011;11074;48.596;9.238;2022-10-16T13:38:30;2.35;;;1.17;;
21822;SDS011;11074;48.596;9.238;2022-10-16T13:41:00;2.38;;;1.33;;
21822;SDS011;11074;48.596;9.238;2022-10-16T13:43:48;1.77;;;1.30;;
21822;SDS011;11074;48.596;9.238;2022-10-16T13:46:19;3.40;;;1.38;;
21822;SDS011;11074;48.596;9.238;2022-10-16T13:48:57;1.83;;;1.40;;
21822;SDS011;11074;48.596;9.238;2022-10-16T13:51:42;1.98;;;1.15;;
21822;SDS011;11074;48.596;9.238;2022-10-16T13:54:21;1.52;;;1.27;;
21822;SDS011;11074;48.596;9.238;2022-10-16T13:56:48;3.22;;;1.30;;
21822;SDS011;11074;48.596;9.238;2022-10-16T13:59:26;5.18;;;1.73;;
21822;SDS011;11074;48.596;9.238;2022-10-16T14:02:01;3.85;;;1.50;;
21822;SDS011;11074;48.596;9.238;2022-10-16T14:04:45;6.97;;;1.58;;
21822;SDS011;11074;48.596;9.238;2022-10-16T14:07:25;4.50;;;1.50;;
21822;SDS011;11074;48.596;9.238;2022-10-16T14:09:54;2.95;;;1.30;;
21822;SDS011;11074;48.596;9.238;2022-10-16T14:12:22;4.97;;;1.40;;
21822;SDS011;11074;48.596;9.238;2022-10-16T14:14:50;4.15;;;1.50;;
21822;SDS011;11074;48.596;9.238;2022-10-16T14:17:20;5.97;;;1.80;;
21822;SDS011;11074;48.596;9.238;2022-10-16T14:19:52;3.90;;;1.40;;
21822;SDS011;11074;48.596;9.238;2022-10-16T14:22:32;4.80;;;1.60;;
21822;SDS011;11074;48.596;9.238;2022-10-16T14:25:21;4.30;;;1.60;;
21822;SDS011;11074;48.596;9.238;2022-10-16T14:28:01;5.15;;;1.50;;
21822;SDS011;11074;48.596;9.238;2022-10-16T14:36:04;4.68;;;1.70;;
21822;SDS011;11074;48.596;9.238;2022-10-16T14:38:38;6.57;;;1.63;;
21822;SDS011;11074;48.596;9.238;2022-10-16T14:41:12;3.63;;;1.80;;
21822;SDS011;11074;48.596;9.238;2022-10-16T14:43:39;3.40;;;1.65;;
21822;SDS011;11074;48.596;9.238;2022-10-16T14:46:15;2.90;;;1.63;;
21822;SDS011;11074;48.596;9.238;2022-10-16T14:48:45;3.17;;;1.70;;
21822;SDS011;11074;48.596;9.238;2022-10-16T14:51:15;4.18;;;1.60;;
21822;SDS011;11074;48.596;9.238;2022-10-16T14:53:45;7.55;;;1.52;;
21822;SDS011;11074;48.596;9.238;2022-10-16T14:56:18;2.70;;;1.80;;
21822;SDS011;11074;48.596;9.238;2022-10-16T14:58:48;4.22;;;1.70;;
21822;SDS011;11074;48.596;9.238;2022-10-16T15:01:16;3.42;;;1.58;;
21822;SDS011;11074;48.596;9.238;2022-10-16T15:03:43;2.38;;;1.30;;
21822;SDS011;11074;48.596;9.238;2022-10-16T15:06:16;2.83;;;1.40;;
21822;SDS011;11074;48.596;9.238;2022-10-16T15:08:42;5.60;;;1.52;;
21822;SDS011;11074;48.596;9.238;2022-10-16T15:11:15;5.07;;;1.70;;
21822;SDS011;11074;48.596;9.238;2022-10-16T15:13:43;5.85;;;1.70;;
21822;SDS011;11074;48.596;9.238;2022-10-16T15:16:11;5.60;;;1.70;;
21822;SDS011;11074;48.596;9.238;2022-10-16T15:18:41;8.30;;;1.80;;
21822;SDS011;11074;48.596;9.238;2022-10-16T15:21:08;8.05;;;1.70;;
21822;SDS011;11074;48.596;9.238;2022-10-16T15:23:53;3.17;;;1.75;;
21822;SDS011;11074;48.596;9.238;2022-10-16T15:26:19;6.00;;;1.73;;
21822;SDS011;11074;48.596;9.238;2022-10-16T15:28:44;7.88;;;1.98;;
21822;SDS011;11074;48.596;9.238;2022-10-16T15:31:10;7.82;;;1.90;;
21822;SDS011;11074;48.596;9.238;2022-10-16T15:33:36;7.43;;;1.70;;
21822;SDS011;11074;48.596;9.238;2022-10-16T15:36:02;5.47;;;1.80;;
21822;SDS011;11074;48.596;9.238;2022-10-16T15:38:28;4.65;;;1.90;;
21822;SDS011;11074;48.596;9.238;2022-10-16T15:40:55;2.83;;;1.63;;
21822;SDS011;11074;48.596;9.238;2022-10-16T15:43:21;8.57;;;1.67;;
21822;SDS011;11074;48.596;9.238;2022-10-16T15:46:00;4.70;;;1.80;;
21822;SDS011;11074;48.596;9.238;2022-10-16T15:48:30;4.35;;;1.83;;
21822;SDS011;11074;48.596;9.238;2022-10-16T15:50:57;3.75;;;1.60;;
21822;SDS011;11074;48.596;9.238;2022-10-16T15:53:24;4.25;;;1.85;;
21822;SDS011;11074;48.596;9.238;2022-10-16T15:55:50;3.45;;;1.77;;
21822;SDS011;11074;48.596;9.238;2022-10-16T15:58:16;5.10;;;1.80;;
21822;SDS011;11074;48.596;9.238;2022-10-16T16:00:42;4.00;;;1.73;;
21822;SDS011;11074;48.596;9.238;2022-10-16T16:03:08;4.25;;;2.03;;
21822;SDS011;11074;48.596;9.238;2022-10-16T16:05:37;4.43;;;1.85;;
21822;SDS011;11074;48.596;9.238;2022-10-16T16:08:04;3.10;;;1.77;;
21822;SDS011;11074;48.596;9.238;2022-10-16T16:10:30;6.15;;;1.85;;
21822;SDS011;11074;48.596;9.238;2022-10-16T16:12:55;3.97;;;1.80;;
21822;SDS011;11074;48.596;9.238;2022-10-16T16:15:22;5.40;;;1.83;;
21822;SDS011;11074;48.596;9.238;2022-10-16T16:17:48;7.50;;;2.65;;
21822;SDS011;11074;48.596;9.238;2022-10-16T16:20:13;5.22;;;2.00;;
21822;SDS011;11074;48.596;9.238;2022-10-16T16:22:40;5.47;;;2.10;;
21822;SDS011;11074;48.596;9.238;2022-10-16T16:25:06;4.22;;;1.75;;
21822;SDS011;11074;48.596;9.238;2022-10-16T16:27:32;5.65;;;2.28;;
21822;SDS011;11074;48.596;9.238;2022-10-16T16:29:59;6.60;;;2.03;;
21822;SDS011;11074;48.596;9.238;2022-10-16T16:32:28;5.13;;;1.90;;
21822;SDS011;11074;48.596;9.238;2022-10-16T16:34:54;7.95;;;2.05;;
21822;SDS011;11074;48.596;9.238;2022-10-16T16:37:20;6.38;;;1.90;;
21822;SDS011;11074;48.596;9.238;2022-10-16T16:39:46;6.95;;;2.42;;
21822;SDS011;11074;48.596;9.238;2022-10-16T16:42:11;9.50;;;2.40;;
21822;SDS011;11074;48.596;9.238;2022-10-16T16:44:37;6.63;;;2.08;;
21822;SDS011;11074;48.596;9.238;2022-10-16T16:47:03;7.40;;;2.20;;
21822;SDS011;11074;48.596;9.238;2022-10-16T16:49:30;6.22;;;2.20;;
21822;SDS011;11074;48.596;9.238;2022-10-16T16:51:57;7.70;;;3.90;;
21822;SDS011;11074;48.596;9.238;2022-10-16T16:54:22;7.18;;;4.45;;
21822;SDS011;11074;48.596;9.238;2022-10-16T16:56:48;6.82;;;5.20;;